Tampa, Florida
Traffic Map
Current Weather Conditions
Tampa, Florida
Few Clouds
Few Clouds
93°
Feels Like: 103°
Wind Chill: 93° Ceiling: Unl
Heat Index: 103° Visibility: 10mi
Dew Point: 74° Wind: 0mph
Humidity: 54% Direction: ° ()
Pressure: 29.98in Gusts: 0mph
Raw Report DataKTPA 231653Z 00000KT 10SM FEW040TCU 34/23 A2998 RMK AO2 SLP150 TCU S-N T03390233 $
Traffic Incident Summary
Active as of:
Severity:
Category:
InformationThere was an issue retrieving the traffic information for this location. Please try a different location or try again shortly.
Advertisements
Track Severe Weather on mobile